Time;durP1;ratioP1;P1;durP2;ratioP2;P2;SDS_P1;SDS_P2;PMS_P1;PMS_P2;Temp;Humidity;BMP_temperature;BMP_pressure;BME280_temperature;BME280_humidity;BME280_pressure;Samples;Min_cycle;Max_cycle;Signal;HPM_P1;HPM_P2
2024/01/09 00:01:43;;;;;;;9.88;4.50;;;;;;;-8.96;60.51;100056.91;6276330;22;20095;-59
2024/01/09 00:04:09;;;;;;;11.02;4.68;;;;;;;-8.94;60.54;100052.56;6275874;22;20004;-58
2024/01/09 00:06:35;;;;;;;7.93;4.28;;;;;;;-8.90;60.73;100056.94;6275919;22;20003;-58
2024/01/09 00:09:02;;;;;;;8.07;4.50;;;;;;;-8.84;60.39;100056.06;6276147;22;20014;-55
2024/01/09 00:11:28;;;;;;;11.75;5.13;;;;;;;-8.81;60.81;100059.53;6276601;22;20270;-54
2024/01/09 00:13:54;;;;;;;10.75;4.72;;;;;;;-8.79;60.68;100062.16;6276213;22;20420;-57
2024/01/09 00:16:20;;;;;;;10.50;4.25;;;;;;;-8.79;60.74;100054.38;6275937;22;20003;-58
2024/01/09 00:18:46;;;;;;;12.60;4.75;;;;;;;-8.76;60.78;100056.97;6276357;22;20014;-60
2024/01/09 00:21:11;;;;;;;7.93;4.03;;;;;;;-8.72;61.04;100057.81;6275700;22;20249;-60
2024/01/09 00:23:37;;;;;;;8.40;4.55;;;;;;;-8.70;60.85;100053.50;6276341;22;20008;-61
2024/01/09 00:26:02;;;;;;;7.65;3.97;;;;;;;-8.71;60.93;100047.47;6275911;22;20031;-61
2024/01/09 00:28:28;;;;;;;8.40;3.88;;;;;;;-8.63;61.03;100068.25;6275687;22;20078;-59
2024/01/09 00:30:54;;;;;;;7.32;3.72;;;;;;;-8.66;61.05;100053.50;6276582;22;20000;-60
2024/01/09 00:33:19;;;;;;;7.97;3.88;;;;;;;-8.63;61.03;100056.97;6276495;22;20003;-59
2024/01/09 00:35:45;;;;;;;6.20;3.63;;;;;;;-8.76;60.59;100018.03;6275995;22;20007;-59
2024/01/09 00:38:10;;;;;;;7.00;3.20;;;;;;;-8.60;61.40;100059.56;6275740;22;20007;-56
2024/01/09 00:40:36;;;;;;;6.82;3.30;;;;;;;-8.58;61.17;100056.13;6276085;22;20012;-58
2024/01/09 00:43:02;;;;;;;5.97;3.33;;;;;;;-8.55;61.11;100052.69;6276569;22;20007;-59
2024/01/09 00:45:27;;;;;;;4.80;2.88;;;;;;;-8.56;61.38;100056.09;6274376;22;20011;-54
2024/01/09 00:47:53;;;;;;;5.22;3.10;;;;;;;-8.90;61.31;99989.47;6275655;22;20014;-56
2024/01/09 00:50:18;;;;;;;7.45;3.17;;;;;;;-8.61;61.61;100035.34;6276407;22;20000;-61
2024/01/09 00:52:44;;;;;;;4.63;3.20;;;;;;;-8.48;61.76;100054.38;6276059;22;20003;-59
2024/01/09 00:55:10;;;;;;;6.10;2.83;;;;;;;-8.42;61.65;100059.56;6274671;22;20010;-59
2024/01/09 00:57:36;;;;;;;6.03;2.72;;;;;;;-8.41;61.40;100058.69;6275730;22;20010;-59
2024/01/09 01:00:02;;;;;;;5.72;3.05;;;;;;;-8.30;61.54;100056.13;6275543;22;20008;-60
2024/01/09 01:02:31;;;;;;;5.78;2.70;;;;;;;-8.25;61.94;100043.97;6275742;22;20011;-58
2024/01/09 01:04:56;;;;;;;6.55;2.85;;;;;;;-8.22;61.50;100049.19;6275265;22;20008;-59
2024/01/09 01:07:21;;;;;;;5.38;3.10;;;;;;;-8.17;61.50;100045.75;6275742;22;20010;-59
2024/01/09 01:09:47;;;;;;;4.45;2.67;;;;;;;-8.13;61.35;100042.25;6276197;22;20107;-57
2024/01/09 01:12:12;;;;;;;5.75;2.75;;;;;;;-8.23;61.25;100034.47;6275250;22;20006;-60
2024/01/09 01:14:38;;;;;;;5.25;2.65;;;;;;;-8.09;61.28;100051.78;6276318;22;20078;-58
2024/01/09 01:17:03;;;;;;;5.70;2.78;;;;;;;-8.15;61.24;100031.84;6277943;22;20408;-60
2024/01/09 01:19:29;;;;;;;4.53;2.72;;;;;;;-8.12;61.01;100025.81;6277466;22;20003;-60
2024/01/09 01:21:54;;;;;;;4.28;2.55;;;;;;;-8.14;61.20;100038.78;6276412;22;19996;-59
2024/01/09 01:24:20;;;;;;;5.72;2.60;;;;;;;-8.13;61.28;100029.28;6278222;22;20452;-61
2024/01/09 01:26:45;;;;;;;5.75;2.63;;;;;;;-8.20;61.56;100031.00;6276536;22;20069;-58
2024/01/09 01:29:11;;;;;;;4.05;2.63;;;;;;;-8.33;61.64;100004.16;6277421;22;20346;-56
2024/01/09 01:31:36;;;;;;;5.18;2.85;;;;;;;-8.20;61.59;100028.41;6278057;22;20065;-59
2024/01/09 01:34:02;;;;;;;4.45;2.65;;;;;;;-8.21;61.82;100031.88;6277206;22;20058;-59
2024/01/09 01:36:27;;;;;;;5.75;2.78;;;;;;;-8.24;61.93;100030.13;6277135;22;20381;-58
2024/01/09 01:38:53;;;;;;;4.65;2.70;;;;;;;-8.16;61.90;100039.69;6277772;22;20000;-58
2024/01/09 01:41:19;;;;;;;3.92;2.45;;;;;;;-8.13;61.71;100037.06;6277498;22;20106;-56
2024/01/09 01:43:44;;;;;;;4.40;2.53;;;;;;;-8.06;61.61;100028.41;6277065;22;20084;-59
2024/01/09 01:46:10;;;;;;;7.53;2.75;;;;;;;-8.00;61.09;100030.13;6277374;22;20003;-57
2024/01/09 01:48:35;;;;;;;4.95;2.78;;;;;;;-8.33;61.37;99969.53;6276808;22;20004;-59
2024/01/09 01:51:02;;;;;;;4.32;2.70;;;;;;;-8.00;61.54;100020.59;6276257;22;20365;-55
2024/01/09 01:53:30;;;;;;;5.15;2.53;;;;;;;-7.91;61.53;100030.09;6276925;22;20007;-56
2024/01/09 01:55:55;;;;;;;6.60;3.00;;;;;;;-7.95;61.27;100024.06;6277683;22;20057;-57
2024/01/09 01:58:24;;;;;;;4.53;2.63;;;;;;;-7.82;61.17;100037.91;6278048;22;20012;-57
2024/01/09 02:00:50;;;;;;;4.13;2.33;;;;;;;-7.80;60.84;100030.97;6276231;22;20023;-61
2024/01/09 02:03:16;;;;;;;6.03;2.67;;;;;;;-7.77;60.93;100040.47;6277170;22;20000;-57
2024/01/09 02:05:42;;;;;;;6.45;2.78;;;;;;;-7.75;61.51;100027.47;6277711;22;20011;-56
2024/01/09 02:08:09;;;;;;;5.18;2.63;;;;;;;-7.77;61.09;100027.47;6277799;22;20004;-59
2024/01/09 02:10:34;;;;;;;6.18;2.67;;;;;;;-7.66;61.42;100040.44;6277176;22;20031;-58
2024/01/09 02:13:00;;;;;;;5.43;2.30;;;;;;;-7.61;60.88;100037.84;6276968;22;20004;-59
2024/01/09 02:15:26;;;;;;;5.53;3.00;;;;;;;-7.60;61.21;100036.97;6277525;22;20034;-59
2024/01/09 02:17:52;;;;;;;4.03;2.33;;;;;;;-7.55;60.87;100036.09;6278071;22;19996;-59
2024/01/09 02:20:22;;;;;;;6.30;2.75;;;;;;;-7.52;60.83;100045.59;6277141;22;20054;-58
2024/01/09 02:22:48;;;;;;;5.35;2.53;;;;;;;-7.56;60.59;100039.56;6276924;22;20056;-60
2024/01/09 02:25:14;;;;;;;4.40;2.70;;;;;;;-7.52;60.64;100043.00;6277035;22;20018;-54
2024/01/09 02:27:50;;;;;;;4.72;2.60;;;;;;;-7.44;60.74;100046.47;6277555;22;20000;-56
2024/01/09 02:30:16;;;;;;;5.68;2.53;;;;;;;-7.50;60.51;100046.47;6277098;22;20007;-56
2024/01/09 02:32:42;;;;;;;6.82;2.95;;;;;;;-7.49;60.66;100037.78;6276596;22;20008;-55
2024/01/09 02:35:08;;;;;;;5.25;2.88;;;;;;;-7.41;60.08;100043.84;6277559;22;20000;-53
2024/01/09 02:37:33;;;;;;;8.43;3.15;;;;;;;-7.43;60.39;100058.59;6277467;22;20004;-55
2024/01/09 02:40:00;;;;;;;8.48;3.47;;;;;;;-7.47;60.44;100049.09;6276959;22;20078;-57
2024/01/09 02:42:29;;;;;;;5.13;2.65;;;;;;;-7.49;60.70;100058.59;6276571;22;20022;-55
2024/01/09 02:44:55;;;;;;;5.68;3.10;;;;;;;-7.46;60.94;100062.94;6277281;22;20000;-64
2024/01/09 02:47:24;;;;;;;8.32;2.65;;;;;;;-7.40;61.02;100062.91;6277445;22;20003;-57
2024/01/09 02:49:50;;;;;;;4.07;2.58;;;;;;;-7.41;60.68;100076.78;6276922;22;20281;-57
2024/01/09 02:52:16;;;;;;;4.43;2.75;;;;;;;-7.38;60.56;100072.44;6276436;22;20003;-59
2024/01/09 02:54:42;;;;;;;4.07;2.50;;;;;;;-7.37;60.50;100066.38;6276414;22;20054;-56
2024/01/09 02:57:09;;;;;;;4.88;2.45;;;;;;;-7.34;60.52;100065.50;6276825;22;20340;-58
2024/01/09 02:59:35;;;;;;;7.22;2.97;;;;;;;-7.31;60.33;100067.22;6277098;22;20480;-56
2024/01/09 03:02:00;;;;;;;8.55;3.65;;;;;;;-7.77;60.54;99996.28;6276604;22;20039;-56
2024/01/09 03:04:26;;;;;;;6.68;3.15;;;;;;;-7.37;60.54;100053.38;6276169;22;20033;-58
2024/01/09 03:06:51;;;;;;;7.20;3.22;;;;;;;-7.30;60.38;100058.53;6275603;22;20003;-52
2024/01/09 03:09:17;;;;;;;5.20;3.08;;;;;;;-7.32;60.46;100049.88;6276123;22;20014;-57
2024/01/09 03:11:43;;;;;;;7.13;3.13;;;;;;;-7.19;59.64;100066.31;6277196;22;20003;-58
2024/01/09 03:14:09;;;;;;;4.65;2.60;;;;;;;-7.32;60.00;100068.97;6276168;22;20037;-56
2024/01/09 03:16:34;;;;;;;5.75;2.83;;;;;;;-7.32;60.15;100062.88;6275197;22;20007;-58
2024/01/09 03:19:00;;;;;;;6.05;2.97;;;;;;;-7.32;59.95;100071.56;6276909;22;20004;-58
2024/01/09 03:21:25;;;;;;;7.72;2.60;;;;;;;-7.32;60.37;100066.38;6276423;22;20089;-57
2024/01/09 03:23:51;;;;;;;5.85;2.80;;;;;;;-7.24;59.99;100059.38;6275951;22;20007;-56
2024/01/09 03:26:17;;;;;;;4.93;2.72;;;;;;;-7.27;60.02;100055.94;6276833;22;20420;-59
2024/01/09 03:28:42;;;;;;;4.88;2.92;;;;;;;-7.26;59.69;100065.47;6276317;22;20000;-59
2024/01/09 03:31:17;;;;;;;5.43;2.80;;;;;;;-7.29;59.62;100055.06;6276075;22;20397;-58
2024/01/09 03:33:42;;;;;;;7.90;2.47;;;;;;;-7.55;59.70;100014.41;6276547;22;20015;-59
2024/01/09 03:36:08;;;;;;;3.53;2.40;;;;;;;-7.23;59.32;100065.47;6275458;22;20427;-55
2024/01/09 03:38:33;;;;;;;4.43;2.42;;;;;;;-7.21;59.36;100064.59;6275624;22;20008;-61
2024/01/09 03:40:59;;;;;;;4.78;2.20;;;;;;;-7.22;59.73;100073.25;6274686;22;20104;-61
2024/01/09 03:43:25;;;;;;;4.57;2.72;;;;;;;-7.22;59.26;100065.44;6277124;22;20012;-60
2024/01/09 03:45:52;;;;;;;7.00;2.10;;;;;;;-7.17;59.50;100069.78;6276276;22;20292;-59
2024/01/09 03:48:17;;;;;;;3.75;2.15;;;;;;;-7.28;59.66;100030.78;6275914;22;20276;-58
2024/01/09 03:50:43;;;;;;;6.65;2.80;;;;;;;-7.45;59.24;100005.72;6276330;22;20099;-58
2024/01/09 03:53:08;;;;;;;5.38;2.58;;;;;;;-7.23;58.90;100053.31;6276680;22;20025;-58
2024/01/09 03:55:34;;;;;;;3.45;1.90;;;;;;;-7.30;58.67;100042.94;6276286;22;20027;-58
2024/01/09 03:57:59;;;;;;;4.78;2.80;;;;;;;-7.28;59.34;100057.69;6275747;22;20032;-58
2024/01/09 04:00:25;;;;;;;5.63;2.70;;;;;;;-7.30;59.07;100051.63;6276823;22;19996;-59
2024/01/09 04:02:50;;;;;;;6.05;2.90;;;;;;;-7.23;59.38;100049.88;6276602;22;20007;-58
2024/01/09 04:05:16;;;;;;;4.22;2.40;;;;;;;-7.16;59.50;100058.47;6276129;22;20393;-58
2024/01/09 04:07:41;;;;;;;6.13;3.53;;;;;;;-7.17;59.27;100057.63;6275727;22;20010;-59
2024/01/09 04:10:07;;;;;;;4.82;2.70;;;;;;;-7.22;59.34;100047.25;6276309;22;20083;-56
2024/01/09 04:12:33;;;;;;;5.55;2.80;;;;;;;-7.21;59.42;100055.94;6276633;22;20079;-59
2024/01/09 04:14:58;;;;;;;3.53;2.40;;;;;;;-7.19;59.83;100062.00;6276673;22;20048;-55
2024/01/09 04:17:23;;;;;;;5.60;2.92;;;;;;;-7.13;58.81;100054.16;6275896;22;20004;-56
2024/01/09 04:19:49;;;;;;;5.03;2.95;;;;;;;-7.13;59.52;100067.16;6274971;22;20400;-60
2024/01/09 04:22:14;;;;;;;5.43;3.08;;;;;;;-7.13;59.28;100061.94;6276747;22;20000;-58
2024/01/09 04:24:40;;;;;;;7.82;3.45;;;;;;;-7.14;58.88;100061.94;6276165;22;20004;-58
2024/01/09 04:27:06;;;;;;;4.88;2.70;;;;;;;-7.20;59.39;100060.25;6275600;22;20412;-57
2024/01/09 04:29:31;;;;;;;5.38;3.25;;;;;;;-7.24;59.45;100068.91;6275896;22;20006;-55
2024/01/09 04:31:57;;;;;;;4.80;3.08;;;;;;;-7.32;59.66;100049.88;6275757;22;20300;-58
2024/01/09 04:34:22;;;;;;;6.90;3.38;;;;;;;-7.21;59.86;100063.72;6276253;22;20277;-58
2024/01/09 04:36:48;;;;;;;4.50;2.92;;;;;;;-7.20;59.62;100068.06;6275790;22;20003;-59
2024/01/09 04:39:14;;;;;;;5.32;3.20;;;;;;;-7.17;59.57;100070.66;6275675;22;20075;-61
2024/01/09 04:41:39;;;;;;;5.28;3.38;;;;;;;-7.13;59.32;100071.47;6276471;22;20003;-59
2024/01/09 04:44:05;;;;;;;6.18;3.10;;;;;;;-7.09;59.64;100081.88;6276009;22;20079;-57
2024/01/09 04:46:30;;;;;;;5.35;3.20;;;;;;;-7.08;58.95;100083.59;6275833;22;20280;-58
2024/01/09 04:48:56;;;;;;;6.82;3.40;;;;;;;-7.04;59.00;100084.47;6275939;22;20304;-59
2024/01/09 04:51:21;;;;;;;6.00;3.40;;;;;;;-7.01;58.98;100088.78;6277565;22;20004;-57
2024/01/09 04:53:47;;;;;;;6.22;3.05;;;;;;;-7.06;58.92;100079.25;6277533;22;20004;-56
2024/01/09 04:56:12;;;;;;;5.90;3.15;;;;;;;-7.35;59.14;100036.00;6276265;22;20262;-58
2024/01/09 04:58:38;;;;;;;7.10;3.63;;;;;;;-7.37;59.05;100037.75;6276499;22;20413;-58
2024/01/09 05:01:04;;;;;;;7.65;3.72;;;;;;;-7.31;58.92;100046.41;6277894;22;20000;-55
2024/01/09 05:03:29;;;;;;;8.82;3.90;;;;;;;-7.02;59.11;100093.13;6278071;22;20007;-51
2024/01/09 05:05:55;;;;;;;7.32;4.25;;;;;;;-6.99;59.20;100087.91;6277689;22;20377;-51
2024/01/09 05:08:20;;;;;;;7.20;3.65;;;;;;;-7.01;59.01;100089.66;6277955;22;20099;-57
2024/01/09 05:10:46;;;;;;;13.73;4.22;;;;;;;-7.03;58.68;100093.13;6277402;22;20292;-58
2024/01/09 05:13:11;;;;;;;8.77;4.47;;;;;;;-7.04;58.97;100096.59;6277684;22;20077;-58
2024/01/09 05:15:37;;;;;;;9.52;4.18;;;;;;;-6.99;59.34;100094.84;6277792;22;20083;-57
2024/01/09 05:18:02;;;;;;;10.48;4.43;;;;;;;-6.97;59.30;100098.34;6277727;22;19999;-55
2024/01/09 05:20:28;;;;;;;7.85;3.90;;;;;;;-6.92;59.23;100101.78;6277691;22;20006;-58
2024/01/09 05:22:54;;;;;;;8.63;3.60;;;;;;;-6.90;59.06;100100.03;6278025;22;20034;-57
2024/01/09 05:25:20;;;;;;;7.40;3.47;;;;;;;-6.92;58.57;100092.22;6276359;22;19996;-56
2024/01/09 05:27:45;;;;;;;6.43;3.40;;;;;;;-7.01;58.67;100076.66;6277506;22;20038;-58
2024/01/09 05:30:11;;;;;;;8.77;3.70;;;;;;;-6.89;58.67;100100.88;6278141;22;20082;-58
2024/01/09 05:32:37;;;;;;;6.68;3.30;;;;;;;-7.17;58.75;100042.03;6277283;22;20073;-60
2024/01/09 05:35:03;;;;;;;7.13;3.42;;;;;;;-6.84;58.68;100105.19;6277366;22;20026;-56
2024/01/09 05:37:30;;;;;;;5.40;3.40;;;;;;;-6.81;58.53;100107.78;6277999;22;20003;-59
2024/01/09 05:39:55;;;;;;;8.05;3.95;;;;;;;-6.97;58.75;100082.72;6277593;22;20089;-57
2024/01/09 05:42:21;;;;;;;6.63;3.40;;;;;;;-6.81;58.60;100106.94;6277207;22;20022;-58
2024/01/09 05:44:47;;;;;;;6.05;3.38;;;;;;;-7.07;58.67;100067.13;6277365;22;20004;-59
2024/01/09 05:47:12;;;;;;;7.35;3.50;;;;;;;-6.81;59.25;100099.13;6277854;22;20026;-55
2024/01/09 05:49:38;;;;;;;9.02;4.03;;;;;;;-6.80;58.79;100106.91;6277913;22;19995;-61
2024/01/09 05:52:04;;;;;;;7.13;3.90;;;;;;;-6.77;59.03;100113.84;6276998;22;20012;-60
2024/01/09 05:54:29;;;;;;;7.65;3.70;;;;;;;-6.81;58.67;100104.34;6277188;22;20293;-56
2024/01/09 05:56:55;;;;;;;8.43;3.97;;;;;;;-6.80;59.02;100114.72;6277666;22;20786;-59
2024/01/09 05:59:20;;;;;;;6.10;3.47;;;;;;;-6.82;59.13;100123.44;6277690;22;20083;-57
2024/01/09 06:01:46;;;;;;;6.53;3.70;;;;;;;-6.69;59.70;100124.25;6277038;22;20003;-59
2024/01/09 06:04:11;;;;;;;5.95;3.28;;;;;;;-6.68;59.15;100131.19;6277149;22;20018;-58
2024/01/09 06:06:37;;;;;;;6.43;3.70;;;;;;;-6.67;58.88;100132.91;6277316;22;20038;-62
2024/01/09 06:09:02;;;;;;;6.40;3.67;;;;;;;-6.61;59.05;100145.88;6276548;22;20377;-57
2024/01/09 06:11:28;;;;;;;10.43;5.05;;;;;;;-6.57;58.83;100137.19;6276836;22;20354;-58
2024/01/09 06:13:55;;;;;;;8.23;4.10;;;;;;;-6.55;58.47;100135.44;6276389;22;20017;-59
2024/01/09 06:16:24;;;;;;;8.52;4.60;;;;;;;-6.73;58.86;100106.91;6277441;22;20005;-57
2024/01/09 06:18:50;;;;;;;8.30;4.15;;;;;;;-6.50;58.81;100132.81;6277551;22;19996;-59
2024/01/09 06:21:15;;;;;;;13.27;5.65;;;;;;;-6.51;58.61;100138.91;6276920;22;20011;-58
2024/01/09 06:23:41;;;;;;;10.23;4.72;;;;;;;-6.45;58.92;100140.59;6276854;22;20560;-55
2024/01/09 06:26:06;;;;;;;9.65;4.70;;;;;;;-6.49;58.91;100147.56;6277523;22;20004;-58
2024/01/09 06:28:34;;;;;;;12.30;4.88;;;;;;;-6.48;58.36;100146.69;6277707;22;20003;-58
2024/01/09 06:31:00;;;;;;;10.00;5.20;;;;;;;-6.47;58.48;100150.19;6276820;22;20380;-56
2024/01/09 06:33:26;;;;;;;8.30;4.75;;;;;;;-6.45;58.90;100143.22;6276522;22;20007;-59
2024/01/09 06:35:52;;;;;;;10.32;5.13;;;;;;;-6.36;58.61;100154.44;6276867;22;20420;-55
2024/01/09 06:38:17;;;;;;;13.48;5.43;;;;;;;-6.36;58.82;100135.34;6277169;22;20053;-57
2024/01/09 06:40:44;;;;;;;13.07;6.10;;;;;;;-6.31;58.47;100141.38;6276182;22;20011;-57
2024/01/09 06:43:09;;;;;;;9.18;4.65;;;;;;;-6.29;58.73;100137.00;6275570;22;20016;-59
2024/01/09 06:45:35;;;;;;;11.93;4.63;;;;;;;-6.25;58.72;100143.09;6276884;22;20332;-58
2024/01/09 06:48:00;;;;;;;11.15;5.00;;;;;;;-6.25;58.12;100153.50;6276671;22;20071;-58
2024/01/09 06:50:26;;;;;;;10.07;5.13;;;;;;;-6.34;58.72;100144.00;6276745;22;20035;-61
2024/01/09 06:52:52;;;;;;;10.05;4.90;;;;;;;-6.24;58.34;100158.72;6275689;22;20003;-57
2024/01/09 06:55:17;;;;;;;9.90;5.15;;;;;;;-6.20;58.22;100170.84;6276814;22;20023;-60
2024/01/09 06:57:44;;;;;;;10.85;5.18;;;;;;;-6.14;58.35;100169.06;6276641;22;20056;-58
2024/01/09 07:00:10;;;;;;;10.30;4.80;;;;;;;-6.12;58.53;100163.00;6276850;22;20083;-62
2024/01/09 07:02:35;;;;;;;7.75;4.55;;;;;;;-6.14;58.22;100151.72;6277603;22;20014;-58
2024/01/09 07:05:01;;;;;;;8.60;4.45;;;;;;;-6.08;58.27;100163.81;6276491;22;20031;-59
2024/01/09 07:07:28;;;;;;;11.73;4.70;;;;;;;-5.98;58.19;100175.00;6276614;22;20085;-54
2024/01/09 07:09:54;;;;;;;9.35;4.63;;;;;;;-5.94;58.13;100180.22;6277088;22;20064;-59
2024/01/09 07:12:19;;;;;;;9.27;4.10;;;;;;;-6.00;57.48;100154.19;6276340;22;20004;-58
2024/01/09 07:14:45;;;;;;;7.55;4.22;;;;;;;-5.94;57.50;100167.16;6276527;22;20007;-60
2024/01/09 07:17:10;;;;;;;7.82;4.47;;;;;;;-5.96;57.35;100162.81;6277097;22;20339;-62
2024/01/09 07:19:36;;;;;;;7.78;4.03;;;;;;;-5.88;57.49;100168.88;6276853;22;20000;-61
2024/01/09 07:22:01;;;;;;;5.97;3.20;;;;;;;-5.86;56.62;100163.63;6276249;22;20305;-60
2024/01/09 07:24:27;;;;;;;8.40;3.65;;;;;;;-5.84;57.03;100165.38;6276912;22;20003;-58
2024/01/09 07:26:52;;;;;;;5.85;2.70;;;;;;;-5.80;55.61;100169.66;6276871;22;20008;-54
2024/01/09 07:29:19;;;;;;;5.60;2.58;;;;;;;-5.76;56.31;100175.75;6276013;22;20012;-57
2024/01/09 07:31:47;;;;;;;6.50;3.58;;;;;;;-5.73;56.11;100177.44;6276426;22;19999;-57
2024/01/09 07:34:13;;;;;;;5.70;3.13;;;;;;;-5.72;55.37;100176.56;6276868;22;20034;-57
2024/01/09 07:36:39;;;;;;;6.20;3.30;;;;;;;-5.64;55.25;100180.84;6277056;22;20003;-58
2024/01/09 07:39:05;;;;;;;4.55;2.70;;;;;;;-5.65;55.18;100186.94;6275938;22;20007;-60
2024/01/09 07:41:31;;;;;;;7.18;3.55;;;;;;;-5.71;54.57;100166.13;6276346;22;20896;-57
2024/01/09 07:43:57;;;;;;;7.03;3.30;;;;;;;-5.59;54.15;100187.75;6277156;22;20007;-59
2024/01/09 07:46:23;;;;;;;4.25;2.80;;;;;;;-5.86;54.16;100125.41;6276514;22;20346;-60
2024/01/09 07:48:48;;;;;;;7.00;3.08;;;;;;;-5.42;53.87;100182.41;6275974;22;20289;-60
2024/01/09 07:51:14;;;;;;;7.97;2.90;;;;;;;-5.74;53.98;100132.25;6276669;22;20328;-61
2024/01/09 07:53:39;;;;;;;6.38;3.15;;;;;;;-5.51;53.61;100185.97;6276866;22;19999;-60
2024/01/09 07:56:17;;;;;;;9.02;3.60;;;;;;;-5.61;54.10;100200.84;6276465;22;19999;-55
2024/01/09 07:58:43;;;;;;;4.78;3.10;;;;;;;-5.68;54.58;100199.13;6275936;22;20000;-63
2024/01/09 08:01:11;;;;;;;7.82;3.03;;;;;;;-5.65;54.94;100204.34;6277040;22;20393;-61
2024/01/09 08:03:37;;;;;;;5.05;3.08;;;;;;;-5.88;54.85;100170.59;6277023;22;20003;-60
2024/01/09 08:06:02;;;;;;;6.88;3.15;;;;;;;-5.62;54.07;100202.56;6276266;22;20518;-58
2024/01/09 08:08:28;;;;;;;7.40;3.92;;;;;;;-5.60;53.73;100206.91;6276007;22;20389;-56
2024/01/09 08:10:53;;;;;;;11.68;4.78;;;;;;;-5.64;54.28;100199.09;6276199;22;20010;-52
2024/01/09 08:13:19;;;;;;;13.43;5.32;;;;;;;-5.63;54.34;100216.47;6276891;22;20086;-51
2024/01/09 08:15:44;;;;;;;8.70;3.78;;;;;;;-5.67;54.45;100193.91;6276668;22;20419;-56
2024/01/09 08:18:10;;;;;;;14.60;5.13;;;;;;;-5.62;53.81;100192.13;6276504;22;20014;-53
2024/01/09 08:20:35;;;;;;;7.63;3.40;;;;;;;-5.48;53.44;100185.94;6276194;22;19996;-53
2024/01/09 08:23:01;;;;;;;9.20;3.50;;;;;;;-5.55;53.33;100184.25;6276848;22;20282;-51
2024/01/09 08:25:26;;;;;;;6.63;3.47;;;;;;;-5.40;53.32;100185.88;6278337;22;19999;-51
2024/01/09 08:27:51;;;;;;;7.57;3.38;;;;;;;-5.33;53.45;100184.94;6277234;22;20075;-55
2024/01/09 08:30:17;;;;;;;6.80;3.05;;;;;;;-5.21;52.99;100191.78;6278164;22;20015;-55
2024/01/09 08:32:43;;;;;;;6.60;3.03;;;;;;;-5.19;52.63;100182.19;6278930;22;20015;-57
2024/01/09 08:35:08;;;;;;;7.57;2.88;;;;;;;-5.06;51.79;100183.78;6276620;22;20004;-58
2024/01/09 08:37:34;;;;;;;6.45;2.50;;;;;;;-5.09;51.37;100177.72;6276744;22;20451;-60
2024/01/09 08:39:59;;;;;;;8.32;3.63;;;;;;;-5.10;52.19;100183.84;6275940;22;20043;-55
2024/01/09 08:42:25;;;;;;;7.40;3.78;;;;;;;-5.18;51.77;100178.69;6277684;22;20015;-58
2024/01/09 08:44:50;;;;;;;6.50;3.28;;;;;;;-5.22;51.85;100171.78;6278001;22;20285;-58
2024/01/09 08:47:16;;;;;;;5.55;2.65;;;;;;;-5.20;51.79;100163.03;6277811;22;20082;-60
2024/01/09 08:49:43;;;;;;;5.90;2.90;;;;;;;-5.33;51.78;100120.53;6277997;22;20309;-57
2024/01/09 08:52:09;;;;;;;3.92;2.40;;;;;;;-4.97;51.65;100156.69;6276501;22;20409;-60
2024/01/09 08:54:35;;;;;;;3.50;2.08;;;;;;;-4.74;51.12;100157.31;6277635;22;20003;-61
2024/01/09 08:57:00;;;;;;;3.38;1.88;;;;;;;-4.59;50.37;100153.66;6276835;22;20007;-58
2024/01/09 08:59:25;;;;;;;4.38;2.58;;;;;;;-4.60;50.59;100144.94;6277872;22;20042;-57
2024/01/09 09:01:51;;;;;;;4.85;2.63;;;;;;;-4.38;50.50;100165.56;6277284;22;20002;-59
2024/01/09 09:04:17;;;;;;;5.30;2.40;;;;;;;-4.19;49.66;100156.56;6277785;22;20000;-60
2024/01/09 09:06:42;;;;;;;4.10;2.60;;;;;;;-4.19;49.54;100142.66;6278210;22;20360;-58
2024/01/09 09:09:09;;;;;;;6.95;3.35;;;;;;;-4.21;49.46;100145.28;6277495;22;20381;-51
2024/01/09 09:11:34;;;;;;;6.90;3.00;;;;;;;-4.30;49.98;100153.25;6278237;22;20042;-53
2024/01/09 09:14:00;;;;;;;6.18;2.90;;;;;;;-4.28;49.69;100135.78;6277820;22;20003;-51
2024/01/09 09:16:28;;;;;;;5.93;2.60;;;;;;;-4.20;49.61;100140.91;6277799;22;20400;-55
2024/01/09 09:18:54;;;;;;;5.20;2.20;;;;;;;-4.09;49.97;100138.16;6277719;22;20000;-53
2024/01/09 09:21:20;;;;;;;5.03;3.08;;;;;;;-3.95;49.64;100144.00;6278428;22;20014;-52
2024/01/09 09:23:46;;;;;;;8.50;3.30;;;;;;;-3.80;50.05;100149.91;6276947;22;20134;-53
2024/01/09 09:26:12;;;;;;;7.32;3.60;;;;;;;-3.66;50.25;100144.44;6277515;22;20063;-58
2024/01/09 09:28:37;;;;;;;4.50;3.08;;;;;;;-3.57;49.61;100146.03;6277865;22;20535;-60
2024/01/09 09:31:03;;;;;;;8.15;3.60;;;;;;;-3.48;49.50;100148.47;6276953;22;20304;-58
2024/01/09 09:33:31;;;;;;;5.20;3.10;;;;;;;-3.50;48.90;100139.78;6277363;22;20003;-58
2024/01/09 09:35:57;;;;;;;4.65;3.20;;;;;;;-3.62;49.85;100139.13;6277273;22;20074;-56
2024/01/09 09:38:24;;;;;;;4.93;2.88;;;;;;;-3.78;49.26;100132.41;6277884;22;20053;-59
2024/01/09 09:40:51;;;;;;;5.63;3.00;;;;;;;-3.86;49.26;100127.31;6278104;22;20004;-62
2024/01/09 09:43:24;;;;;;;7.72;3.30;;;;;;;-3.81;50.08;100115.00;6277471;22;20015;-60
2024/01/09 09:45:55;;;;;;;5.90;3.40;;;;;;;-3.92;49.59;100112.56;6277616;22;20018;-58
2024/01/09 09:48:23;;;;;;;6.40;3.20;;;;;;;-4.00;50.09;100114.44;6277929;22;20094;-60
2024/01/09 09:50:54;;;;;;;6.10;3.05;;;;;;;-4.19;49.93;100101.66;6277674;22;20018;-64
2024/01/09 09:53:22;;;;;;;5.25;2.80;;;;;;;-4.28;51.52;100117.50;6276935;22;20044;-64
2024/01/09 09:55:48;;;;;;;5.22;3.58;;;;;;;-4.34;51.55;100104.50;6277688;22;20046;-59
2024/01/09 09:58:14;;;;;;;6.93;3.72;;;;;;;-4.34;51.83;100110.59;6277750;22;20003;-56
2024/01/09 10:00:39;;;;;;;6.60;3.70;;;;;;;-4.38;51.39;100092.34;6277443;22;20003;-57
2024/01/09 10:03:10;;;;;;;7.18;3.60;;;;;;;-4.32;51.67;100102.75;6277171;22;20106;-60
2024/01/09 10:05:40;;;;;;;7.25;3.28;;;;;;;-4.29;51.64;100101.81;6276987;22;20401;-56
2024/01/09 10:08:09;;;;;;;5.00;3.25;;;;;;;-4.26;51.96;100118.34;6277817;22;20019;-61
2024/01/09 10:10:36;;;;;;;8.20;3.28;;;;;;;-4.18;51.46;100087.69;6277381;22;20373;-58
2024/01/09 10:13:03;;;;;;;6.05;3.38;;;;;;;-4.07;51.22;100098.00;6277075;22;20007;-57
2024/01/09 10:15:29;;;;;;;5.45;3.15;;;;;;;-4.03;51.36;100083.97;6277004;22;20423;-58
2024/01/09 10:17:55;;;;;;;4.95;3.40;;;;;;;-3.98;51.31;100089.13;6277746;22;19999;-60
2024/01/09 10:20:20;;;;;;;4.40;3.13;;;;;;;-3.99;50.54;100086.53;6277796;22;20014;-62
2024/01/09 10:22:48;;;;;;;7.35;3.50;;;;;;;-4.05;50.96;100084.91;6277525;22;20023;-57
2024/01/09 10:25:13;;;;;;;8.52;3.75;;;;;;;-4.14;50.95;100085.03;6276686;22;20010;-59
2024/01/09 10:27:40;;;;;;;5.88;2.72;;;;;;;-4.23;50.71;100073.84;6277552;22;20082;-56
2024/01/09 10:30:08;;;;;;;8.55;3.65;;;;;;;-4.30;51.38;100069.59;6277109;22;20086;-61
2024/01/09 10:32:35;;;;;;;14.93;3.85;;;;;;;-4.32;51.99;100063.53;6276696;22;20000;-60
2024/01/09 10:35:05;;;;;;;7.70;4.28;;;;;;;-4.35;51.78;100055.72;6276882;22;20055;-61
2024/01/09 10:37:33;;;;;;;11.60;4.50;;;;;;;-4.29;51.15;100065.22;6276649;22;20003;-60
2024/01/09 10:39:59;;;;;;;7.68;4.13;;;;;;;-4.35;51.89;100063.56;6276902;22;20332;-60
2024/01/09 10:42:26;;;;;;;8.55;4.00;;;;;;;-4.33;51.72;100051.34;6276687;22;20050;-57
2024/01/09 10:44:52;;;;;;;8.35;5.13;;;;;;;-4.43;52.91;100040.19;6276954;22;20117;-62
2024/01/09 10:47:18;;;;;;;10.88;4.50;;;;;;;-4.42;52.33;100043.63;6275244;22;20059;-56
2024/01/09 10:49:45;;;;;;;10.15;3.95;;;;;;;-4.47;52.17;100051.53;6276758;22;20061;-59
2024/01/09 10:52:15;;;;;;;13.40;4.20;;;;;;;-4.39;52.20;100040.97;6276762;22;20014;-56
2024/01/09 10:54:42;;;;;;;7.07;3.70;;;;;;;-4.37;52.89;100031.34;6276561;22;20011;-58
2024/01/09 10:57:12;;;;;;;6.55;3.90;;;;;;;-4.33;52.44;100033.91;6276553;22;20004;-59
2024/01/09 10:59:45;;;;;;;7.22;3.67;;;;;;;-4.32;52.57;100029.56;6277132;22;20404;-59
2024/01/09 11:02:22;;;;;;;8.40;4.18;;;;;;;-4.31;52.19;100020.81;6276843;22;19999;-60
2024/01/09 11:04:48;;;;;;;8.30;4.03;;;;;;;-4.58;52.30;99969.84;6276675;22;20000;-58
2024/01/09 11:07:16;;;;;;;6.45;3.80;;;;;;;-4.36;52.55;100017.38;6276524;22;20427;-63
2024/01/09 11:09:46;;;;;;;9.07;3.70;;;;;;;-4.41;52.38;100021.84;6276825;22;19996;-60
2024/01/09 11:12:30;;;;;;;8.93;3.92;;;;;;;-4.36;52.44;100009.56;6276586;22;20156;-57
2024/01/09 11:15:03;;;;;;;6.45;3.60;;;;;;;-4.45;52.79;100004.47;6276356;22;20426;-61
2024/01/09 11:17:33;;;;;;;6.63;3.33;;;;;;;-4.49;52.60;100001.91;6276635;22;20061;-55
2024/01/09 11:19:58;;;;;;;6.70;3.70;;;;;;;-4.51;52.41;100008.06;6276353;22;20091;-57